Time;durP1;ratioP1;P1;durP2;ratioP2;P2;SDS_P1;SDS_P2;PMS_P1;PMS_P2;Temp;Humidity;BMP_temperature;BMP_pressure;BME280_temperature;BME280_humidity;BME280_pressure;Samples;Min_cycle;Max_cycle;Signal;HPM_P1;HPM_P2
2023/07/21 00:01:06;;;;;;;41.17;38.03;;;15.60;99.90;;;;;;5059244;28;20122;-66
2023/07/21 00:03:33;;;;;;;40.50;37.45;;;15.50;99.90;;;;;;5065043;28;20047;-66
2023/07/21 00:06:06;;;;;;;39.08;36.28;;;15.40;99.90;;;;;;5059699;28;20041;-66
2023/07/21 00:08:32;;;;;;;41.63;38.60;;;15.50;99.90;;;;;;5061078;28;20116;-66
2023/07/21 00:10:58;;;;;;;43.22;39.90;;;15.40;99.90;;;;;;5068525;28;20120;-66
2023/07/21 00:13:25;;;;;;;42.78;39.50;;;15.40;99.90;;;;;;5069728;28;20135;-66
2023/07/21 00:15:51;;;;;;;43.40;40.10;;;15.40;1.00;;;;;;5050570;28;20423;-66
2023/07/21 00:18:16;;;;;;;42.80;39.65;;;15.40;1.00;;;;;;5050083;28;20048;-66
2023/07/21 00:20:42;;;;;;;43.03;39.92;;;15.40;1.00;;;;;;5060839;28;20040;-66
2023/07/21 00:23:08;;;;;;;41.78;38.78;;;15.30;40.30;;;;;;5057883;28;20072;-66
2023/07/21 00:25:33;;;;;;;38.55;35.55;;;15.30;80.80;;;;;;5050684;28;20170;-66
2023/07/21 00:27:59;;;;;;;40.75;37.85;;;15.20;92.90;;;;;;5054555;28;20032;-65
2023/07/21 00:30:25;;;;;;;42.65;39.53;;;15.30;82.60;;;;;;5055506;28;20044;-66
2023/07/21 00:32:51;;;;;;;42.55;39.45;;;15.20;99.90;;;;;;5064091;28;20044;-66
2023/07/21 00:35:16;;;;;;;42.58;39.58;;;15.20;99.90;;;;;;5058188;28;20036;-66
2023/07/21 00:37:42;;;;;;;41.88;38.78;;;15.10;99.90;;;;;;5064838;28;20033;-66
2023/07/21 00:40:18;;;;;;;42.67;39.50;;;15.20;99.90;;;;;;5051033;28;20390;-66
2023/07/21 00:42:43;;;;;;;45.17;41.65;;;15.10;99.90;;;;;;5051296;28;20043;-66
2023/07/21 00:45:09;;;;;;;45.55;42.05;;;15.10;99.90;;;;;;5062267;28;20029;-66
2023/07/21 00:47:36;;;;;;;45.97;42.58;;;15.20;99.90;;;;;;5062889;28;20055;-66
2023/07/21 00:50:02;;;;;;;45.15;41.65;;;15.30;99.90;;;;;;5068782;28;20399;-66
2023/07/21 00:52:28;;;;;;;41.42;38.38;;;15.30;1.00;;;;;;5057402;28;20029;-66
2023/07/21 00:54:53;;;;;;;40.63;37.72;;;15.30;1.00;;;;;;5068844;28;20114;-66
2023/07/21 00:57:20;;;;;;;41.42;38.45;;;15.20;1.00;;;;;;5060306;28;20039;-66
2023/07/21 00:59:46;;;;;;;43.00;39.80;;;15.30;1.00;;;;;;5062129;28;20143;-66
2023/07/21 01:02:12;;;;;;;41.60;38.50;;;15.30;1.00;;;;;;5061064;28;20116;-66
2023/07/21 01:04:38;;;;;;;41.92;38.83;;;15.10;1.00;;;;;;5069039;28;20055;-66
2023/07/21 01:07:06;;;;;;;42.00;38.83;;;15.30;1.00;;;;;;5064141;28;20045;-66
2023/07/21 01:09:35;;;;;;;43.63;40.38;;;15.10;1.00;;;;;;5063795;28;20041;-66
2023/07/21 01:12:01;;;;;;;45.13;41.67;;;15.10;99.90;;;;;;5039851;28;20036;-66
2023/07/21 01:14:29;;;;;;;44.28;40.78;;;15.10;99.90;;;;;;5049530;28;20064;-65
2023/07/21 01:16:57;;;;;;;45.40;41.97;;;15.00;99.90;;;;;;5059353;28;20051;-65
2023/07/21 01:19:23;;;;;;;42.35;39.25;;;15.10;99.90;;;;;;5068993;28;20040;-66
2023/07/21 01:22:03;;;;;;;44.13;40.83;;;15.00;99.90;;;;;;5060339;28;20061;-66
2023/07/21 01:24:41;;;;;;;45.45;42.05;;;15.00;99.90;;;;;;5053941;28;20128;-66
2023/07/21 01:27:08;;;;;;;44.13;40.85;;;15.00;99.90;;;;;;5060957;28;20127;-66
2023/07/21 01:29:35;;;;;;;43.88;40.58;;;15.00;1.00;;;;;;5054724;28;20047;-66
2023/07/21 01:32:06;;;;;;;44.08;40.78;;;15.00;1.00;;;;;;5052971;28;20449;-66
2023/07/21 01:34:33;;;;;;;44.05;40.65;;;15.20;99.90;;;;;;5063681;28;20096;-66
2023/07/21 01:37:00;;;;;;;42.72;39.60;;;15.20;1.00;;;;;;5066478;28;20056;-66
2023/07/21 01:39:28;;;;;;;43.33;40.13;;;15.10;1.00;;;;;;5037988;28;20449;-66
2023/07/21 01:41:55;;;;;;;45.22;41.83;;;15.10;1.00;;;;;;5069016;28;20098;-66
2023/07/21 01:44:23;;;;;;;45.38;41.97;;;15.00;1.00;;;;;;5069567;28;20041;-66
2023/07/21 01:46:49;;;;;;;46.05;42.55;;;14.90;1.00;;;;;;5063963;28;20052;-66
2023/07/21 01:49:15;;;;;;;45.90;42.28;;;15.00;1.00;;;;;;5063059;28;20044;-66
2023/07/21 01:51:43;;;;;;;45.58;42.08;;;15.00;1.00;;;;;;5058948;28;20410;-66
2023/07/21 01:54:14;;;;;;;46.38;42.78;;;14.90;1.00;;;;;;5052849;28;20059;-66
2023/07/21 01:56:44;;;;;;;45.45;42.05;;;15.00;1.00;;;;;;5060386;28;20541;-66
2023/07/21 01:59:12;;;;;;;48.83;45.15;;;14.70;1.00;;;;;;5065871;28;20048;-66
2023/07/21 02:01:39;;;;;;;45.45;41.95;;;15.00;1.00;;;;;;5067871;28;20127;-66
2023/07/21 02:04:05;;;;;;;46.25;42.75;;;14.90;4.20;;;;;;5057512;28;20053;-66
2023/07/21 02:06:31;;;;;;;46.35;42.80;;;14.90;21.00;;;;;;5056056;28;20085;-66
2023/07/21 02:08:57;;;;;;;45.38;41.85;;;14.80;21.20;;;;;;5052384;28;20128;-66
2023/07/21 02:11:24;;;;;;;45.60;42.13;;;14.80;16.90;;;;;;5061790;28;20115;-66
2023/07/21 02:13:50;;;;;;;45.63;42.10;;;14.80;31.70;;;;;;5063191;28;20052;-66
2023/07/21 02:16:15;;;;;;;43.92;40.72;;;14.80;48.30;;;;;;5065229;28;20056;-66
2023/07/21 02:18:42;;;;;;;44.33;40.97;;;14.80;47.10;;;;;;5059724;28;20510;-65
2023/07/21 02:21:08;;;;;;;44.33;40.97;;;14.70;39.20;;;;;;5069294;28;20048;-66
2023/07/21 02:23:33;;;;;;;44.85;41.53;;;14.60;18.80;;;;;;5052129;28;20045;-66
2023/07/21 02:25:59;;;;;;;44.97;41.65;;;14.90;1.00;;;;;;5059500;28;20033;-66
2023/07/21 02:28:25;;;;;;;46.30;42.70;;;14.60;1.00;;;;;;5045798;28;20041;-66
2023/07/21 02:31:03;;;;;;;45.90;42.40;;;14.30;1.00;;;;;;5051545;28;20044;-66
2023/07/21 02:33:32;;;;;;;47.47;43.88;;;14.30;1.00;;;;;;5051999;28;20478;-65
2023/07/21 02:35:59;;;;;;;46.45;43.08;;;14.20;1.00;;;;;;5044466;28;20045;-66
2023/07/21 02:38:25;;;;;;;47.83;44.13;;;14.10;21.60;;;;;;5067815;28;20044;-66
2023/07/21 02:40:51;;;;;;;47.97;44.25;;;14.20;54.00;;;;;;5058634;28;20048;-66
2023/07/21 02:43:17;;;;;;;48.72;44.92;;;14.20;99.90;;;;;;5064401;28;20036;-66
2023/07/21 02:45:50;;;;;;;46.25;42.75;;;14.20;99.90;;;;;;5057476;28;20037;-66
2023/07/21 02:48:17;;;;;;;47.95;44.42;;;14.10;99.90;;;;;;5054240;28;20048;-65
2023/07/21 02:50:47;;;;;;;48.03;44.53;;;14.40;99.90;;;;;;5066501;28;20037;-65
2023/07/21 02:53:13;;;;;;;47.55;43.65;;;14.10;99.90;;;;;;5071780;28;20047;-65
2023/07/21 02:55:39;;;;;;;49.65;45.95;;;14.20;99.90;;;;;;5065578;28;20033;-66
2023/07/21 02:58:04;;;;;;;48.28;44.65;;;14.20;1.00;;;;;;5065656;28;20044;-66
2023/07/21 03:00:30;;;;;;;49.88;46.20;;;14.20;1.00;;;;;;5062879;28;20052;-65
2023/07/21 03:02:56;;;;;;;49.03;45.38;;;14.30;1.00;;;;;;5071362;28;20048;-66
2023/07/21 03:05:21;;;;;;;47.92;44.45;;;14.30;61.20;;;;;;5070058;28;20043;-65
2023/07/21 03:07:47;;;;;;;48.53;44.80;;;14.50;99.90;;;;;;5070905;28;20047;-65
2023/07/21 03:10:12;;;;;;;51.33;47.22;;;14.40;99.90;;;;;;5070816;28;20513;-65
2023/07/21 03:12:38;;;;;;;48.40;44.70;;;14.50;99.90;;;;;;5071225;28;20063;-65
2023/07/21 03:15:05;;;;;;;48.92;45.17;;;14.60;99.90;;;;;;5064960;28;20138;-65
2023/07/21 03:17:32;;;;;;;48.15;44.55;;;14.60;99.90;;;;;;5069542;28;20037;-65
2023/07/21 03:19:59;;;;;;;47.08;43.50;;;14.60;1.00;;;;;;5070350;28;20044;-65
2023/07/21 03:22:24;;;;;;;48.00;44.22;;;14.60;1.00;;;;;;5051009;28;20068;-65
2023/07/21 03:24:50;;;;;;;45.45;42.05;;;14.70;1.00;;;;;;5050719;28;20083;-65
2023/07/21 03:27:15;;;;;;;43.65;40.35;;;14.70;1.00;;;;;;5058480;28;20387;-65
2023/07/21 03:29:42;;;;;;;46.03;42.67;;;14.70;1.00;;;;;;5069643;28;20418;-65
2023/07/21 03:32:08;;;;;;;45.53;42.13;;;14.50;1.00;;;;;;5055511;28;20106;-65
2023/07/21 03:34:35;;;;;;;47.22;43.63;;;14.60;1.00;;;;;;5051965;28;20033;-65
2023/07/21 03:37:04;;;;;;;46.25;42.78;;;14.60;1.00;;;;;;5058703;28;20525;-65
2023/07/21 03:39:30;;;;;;;47.30;43.60;;;14.50;1.00;;;;;;5042330;28;20500;-65
2023/07/21 03:41:57;;;;;;;46.08;42.58;;;14.40;21.80;;;;;;5055898;28;20112;-65
2023/07/21 03:44:22;;;;;;;49.80;45.78;;;14.40;65.10;;;;;;5032896;28;20040;-65
2023/07/21 03:46:48;;;;;;;47.97;44.30;;;14.40;85.10;;;;;;5056308;28;20037;-65
2023/07/21 03:49:14;;;;;;;49.42;45.50;;;14.40;99.90;;;;;;5062417;28;20067;-65
2023/07/21 03:51:40;;;;;;;49.90;46.10;;;14.40;99.90;;;;;;5057675;28;20040;-65
2023/07/21 03:54:05;;;;;;;48.13;44.30;;;14.40;99.90;;;;;;5050341;28;20120;-65
2023/07/21 03:56:31;;;;;;;52.47;48.38;;;14.60;99.90;;;;;;5052571;28;20052;-65
2023/07/21 03:58:58;;;;;;;51.88;47.88;;;14.50;1.00;;;;;;5054480;28;20101;-65
2023/07/21 04:01:24;;;;;;;50.30;46.58;;;14.70;1.00;;;;;;5057243;28;20045;-65
2023/07/21 04:03:51;;;;;;;43.83;40.45;;;14.50;1.00;;;;;;5053798;28;20462;-65
2023/07/21 04:06:20;;;;;;;47.85;44.15;;;14.70;45.80;;;;;;5066928;28;20351;-65
2023/07/21 04:08:46;;;;;;;47.25;43.55;;;14.80;99.90;;;;;;5070211;28;20048;-65
2023/07/21 04:11:11;;;;;;;49.83;45.97;;;14.80;99.90;;;;;;5070413;28;20037;-65
2023/07/21 04:13:37;;;;;;;47.80;43.85;;;14.70;99.90;;;;;;5068127;28;20041;-65
2023/07/21 04:16:03;;;;;;;48.13;44.42;;;14.90;1.00;;;;;;5060677;28;20064;-65
2023/07/21 04:18:28;;;;;;;46.10;42.60;;;14.90;1.00;;;;;;5052063;28;20029;-65
2023/07/21 04:20:54;;;;;;;48.60;44.47;;;14.90;30.40;;;;;;5051071;28;20452;-65
2023/07/21 04:23:19;;;;;;;48.58;44.45;;;14.80;99.90;;;;;;5051007;28;20045;-65
2023/07/21 04:25:46;;;;;;;47.25;43.55;;;15.10;99.90;;;;;;5059153;28;20075;-65
2023/07/21 04:28:12;;;;;;;49.13;45.35;;;14.90;99.90;;;;;;5058274;28;20036;-65
2023/07/21 04:30:37;;;;;;;47.17;43.58;;;15.00;1.00;;;;;;5068861;28;20063;-65
2023/07/21 04:33:03;;;;;;;47.45;43.85;;;15.20;1.00;;;;;;5070109;28;20036;-65
2023/07/21 04:35:29;;;;;;;45.92;42.42;;;15.10;97.50;;;;;;5068356;28;20154;-65
2023/07/21 04:37:55;;;;;;;46.78;43.08;;;15.30;99.90;;;;;;5068080;28;20040;-65
2023/07/21 04:40:20;;;;;;;45.83;42.13;;;15.10;99.90;;;;;;5066316;28;20130;-65
2023/07/21 04:42:46;;;;;;;50.22;44.13;;;15.20;99.90;;;;;;5059086;28;20076;-65
2023/07/21 04:45:12;;;;;;;62.00;43.25;;;15.20;99.90;;;;;;5058405;28;20043;-65
2023/07/21 04:47:40;;;;;;;48.38;43.78;;;15.30;99.90;;;;;;5057152;28;20479;-65
2023/07/21 04:50:07;;;;;;;48.03;43.22;;;15.30;99.90;;;;;;5042458;28;20029;-65
2023/07/21 04:52:32;;;;;;;50.20;44.35;;;15.30;99.90;;;;;;5069474;28;20037;-65
2023/07/21 04:54:58;;;;;;;53.25;43.75;;;15.30;99.90;;;;;;5057607;28;20036;-65
2023/07/21 04:57:25;;;;;;;55.55;44.58;;;15.10;99.90;;;;;;5033287;28;20155;-65
2023/07/21 04:59:50;;;;;;;70.57;45.85;;;15.30;99.90;;;;;;5067985;28;20582;-65
2023/07/21 05:02:16;;;;;;;63.75;45.08;;;15.10;99.90;;;;;;5067255;28;20055;-65
2023/07/21 05:04:42;;;;;;;51.05;44.80;;;15.20;99.90;;;;;;5071258;28;20552;-65
2023/07/21 05:07:08;;;;;;;48.28;43.58;;;15.40;99.90;;;;;;5052819;28;20402;-65
2023/07/21 05:09:34;;;;;;;48.75;44.67;;;15.50;99.90;;;;;;5070751;28;20483;-65
2023/07/21 05:12:01;;;;;;;47.53;43.78;;;15.70;1.00;;;;;;5072304;28;20112;-65
2023/07/21 05:14:26;;;;;;;47.10;43.20;;;15.60;1.00;;;;;;5072801;28;20463;-65
2023/07/21 05:16:52;;;;;;;46.58;42.75;;;15.90;1.00;;;;;;5082161;28;20135;-65
2023/07/21 05:19:18;;;;;;;45.10;41.65;;;15.80;1.00;;;;;;5078857;28;20569;-65
2023/07/21 05:21:45;;;;;;;47.28;43.47;;;16.10;1.00;;;;;;5071364;28;20079;-65
2023/07/21 05:24:11;;;;;;;44.47;41.08;;;16.00;9.10;;;;;;5073047;28;20464;-65
2023/07/21 05:26:37;;;;;;;45.20;41.60;;;16.20;10.90;;;;;;5071334;28;20078;-65
2023/07/21 05:29:03;;;;;;;45.70;42.10;;;16.30;22.90;;;;;;5074526;28;20074;-65
2023/07/21 05:31:30;;;;;;;45.20;41.35;;;16.20;34.30;;;;;;5054304;28;20486;-66
2023/07/21 05:33:55;;;;;;;42.85;39.55;;;16.30;54.60;;;;;;5071922;28;20037;-65
2023/07/21 05:36:21;;;;;;;42.70;39.38;;;16.50;53.20;;;;;;5060557;28;20040;-65
2023/07/21 05:38:47;;;;;;;44.55;40.83;;;16.60;70.60;;;;;;5043407;28;20044;-65
2023/07/21 05:41:12;;;;;;;43.78;40.03;;;16.80;92.20;;;;;;5069189;28;20079;-65
2023/07/21 05:43:38;;;;;;;44.63;40.45;;;16.80;99.90;;;;;;5072854;28;20097;-65
2023/07/21 05:46:05;;;;;;;41.88;38.53;;;17.00;99.90;;;;;;5068173;28;20123;-65
2023/07/21 05:48:31;;;;;;;40.38;37.13;;;17.50;99.90;;;;;;5065902;28;20158;-65
2023/07/21 05:50:57;;;;;;;42.20;38.60;;;17.70;99.90;;;;;;5067127;28;20096;-65
2023/07/21 05:53:23;;;;;;;43.15;39.65;;;17.50;99.90;;;;;;5050776;28;20039;-65
2023/07/21 05:55:50;;;;;;;41.65;38.30;;;17.50;53.60;;;;;;5068416;28;20036;-65
2023/07/21 05:58:18;;;;;;;41.97;38.67;;;17.60;11.00;;;;;;5066667;28;20445;-65
2023/07/21 06:00:44;;;;;;;40.42;37.28;;;17.50;1.00;;;;;;5059570;28;20052;-66
2023/07/21 06:03:10;;;;;;;42.03;38.55;;;17.70;1.00;;;;;;5068765;28;20545;-65
2023/07/21 06:05:36;;;;;;;42.75;39.35;;;17.70;1.00;;;;;;5065813;28;20143;-65
2023/07/21 06:08:04;;;;;;;39.20;36.17;;;17.60;99.90;;;;;;5064997;28;20075;-65
2023/07/21 06:10:31;;;;;;;40.80;37.33;;;17.60;99.90;;;;;;5064600;28;20128;-65
2023/07/21 06:12:57;;;;;;;40.90;37.28;;;17.70;99.90;;;;;;5065107;28;20036;-65
2023/07/21 06:15:24;;;;;;;38.22;35.25;;;17.90;99.90;;;;;;5046168;28;20501;-64
2023/07/21 06:17:50;;;;;;;38.67;35.55;;;17.80;99.90;;;;;;5059203;28;20067;-65
2023/07/21 06:20:16;;;;;;;38.67;35.28;;;17.80;99.90;;;;;;5067213;28;20065;-65
2023/07/21 06:22:41;;;;;;;38.95;35.83;;;17.80;62.50;;;;;;5064326;28;20521;-64
2023/07/21 06:25:07;;;;;;;39.63;36.42;;;18.00;1.00;;;;;;5061859;28;20072;-65
2023/07/21 06:27:33;;;;;;;40.35;37.03;;;18.10;1.00;;;;;;5066134;28;20040;-65
2023/07/21 06:29:59;;;;;;;35.60;32.78;;;17.90;1.00;;;;;;5059730;28;20036;-65
2023/07/21 06:32:24;;;;;;;38.75;35.72;;;18.10;99.90;;;;;;5064329;28;20036;-68
2023/07/21 06:34:50;;;;;;;38.15;35.05;;;18.00;99.90;;;;;;5062455;28;20047;-69
2023/07/21 06:37:15;;;;;;;41.97;37.50;;;18.00;99.90;;;;;;5064150;28;20045;-65
2023/07/21 06:39:41;;;;;;;37.15;34.03;;;18.20;99.90;;;;;;5062983;28;20036;-65
2023/07/21 06:42:08;;;;;;;37.08;33.97;;;18.30;61.20;;;;;;5066978;28;20050;-65
2023/07/21 06:44:36;;;;;;;36.10;32.70;;;18.40;1.00;;;;;;5057578;28;20101;-65
2023/07/21 06:47:02;;;;;;;35.80;32.38;;;18.60;1.00;;;;;;5059556;28;20036;-65
2023/07/21 06:49:27;;;;;;;31.95;29.55;;;18.60;99.90;;;;;;5059076;28;21810;-65
2023/07/21 06:51:53;;;;;;;27.83;25.42;;;18.70;99.90;;;;;;5041194;28;20048;-65
2023/07/21 06:54:18;;;;;;;26.27;24.27;;;19.20;99.90;;;;;;5054955;28;20048;-65
2023/07/21 06:56:44;;;;;;;24.83;22.92;;;19.10;1.00;;;;;;5057459;28;20036;-65
2023/07/21 06:59:10;;;;;;;26.65;24.55;;;19.20;99.90;;;;;;5045783;28;20580;-64
2023/07/21 07:01:35;;;;;;;27.27;25.27;;;19.20;1.00;;;;;;5064085;28;20048;-65
2023/07/21 07:04:01;;;;;;;22.25;20.65;;;20.50;99.90;;;;;;5050193;28;20037;-65
2023/07/21 07:06:30;;;;;;;25.25;23.45;;;19.30;1.00;;;;;;5066266;28;20471;-65
2023/07/21 07:08:55;;;;;;;22.52;20.70;;;19.40;99.90;;;;;;5060193;28;20037;-65
2023/07/21 07:11:22;;;;;;;23.20;21.48;;;19.50;1.00;;;;;;5062876;28;20048;-65
2023/07/21 07:13:48;;;;;;;20.83;19.13;;;19.50;99.90;;;;;;5055507;28;20044;-65
2023/07/21 07:16:13;;;;;;;23.15;21.35;;;19.50;90.70;;;;;;5058512;28;20036;-65
2023/07/21 07:18:39;;;;;;;23.48;21.58;;;19.50;1.00;;;;;;5068382;28;20044;-65
2023/07/21 07:21:05;;;;;;;22.80;20.90;;;19.60;99.90;;;;;;5057437;28;20041;-65
2023/07/21 07:23:30;;;;;;;23.15;21.45;;;19.60;99.90;;;;;;5062078;28;20044;-65
2023/07/21 07:25:56;;;;;;;23.85;21.92;;;19.50;1.00;;;;;;5063460;28;20041;-65
2023/07/21 07:28:22;;;;;;;24.60;22.30;;;19.50;1.00;;;;;;5067388;28;20391;-65
2023/07/21 07:30:48;;;;;;;24.98;23.02;;;19.50;99.90;;;;;;5058560;28;20082;-65
2023/07/21 07:33:17;;;;;;;26.10;23.65;;;19.40;99.90;;;;;;5064569;28;20036;-69
2023/07/21 07:35:52;;;;;;;23.52;21.77;;;19.50;99.90;;;;;;5048464;28;20052;-67
2023/07/21 07:38:30;;;;;;;23.35;21.55;;;19.60;99.90;;;;;;5052945;28;20055;-68
2023/07/21 07:41:05;;;;;;;11.82;10.63;;;19.70;99.90;;;;;;5060872;28;20097;-64
2023/07/21 07:43:32;;;;;;;11.15;10.25;;;19.80;70.90;;;;;;5069738;28;20072;-64
2023/07/21 07:45:58;;;;;;;13.18;12.10;;;19.90;1.00;;;;;;5062516;28;20044;-64
2023/07/21 07:48:24;;;;;;;12.98;11.98;;;20.00;1.00;;;;;;5064748;28;20044;-64
2023/07/21 07:50:51;;;;;;;12.52;11.43;;;20.00;99.90;;;;;;5057669;28;20025;-64
2023/07/21 07:53:17;;;;;;;7.57;7.07;;;20.10;99.90;;;;;;5055238;28;20120;-64
2023/07/21 07:55:44;;;;;;;7.68;7.07;;;20.10;99.90;;;;;;5062473;28;20111;-65
2023/07/21 07:58:10;;;;;;;9.18;8.57;;;20.00;45.50;;;;;;5062478;28;20044;-64
2023/07/21 08:00:41;;;;;;;9.40;8.70;;;20.00;1.00;;;;;;5060066;28;20052;-65
2023/07/21 08:03:08;;;;;;;8.50;7.90;;;20.00;1.00;;;;;;5064973;28;20119;-65
2023/07/21 08:05:38;;;;;;;9.60;8.80;;;20.10;1.00;;;;;;5058478;28;20032;-64
2023/07/21 08:08:04;;;;;;;8.50;7.60;;;20.20;1.00;;;;;;5066244;28;20032;-65
2023/07/21 08:10:33;;;;;;;10.00;9.20;;;20.10;1.00;;;;;;5062063;28;20487;-64
2023/07/21 08:13:00;;;;;;;6.65;6.15;;;20.20;1.00;;;;;;5054832;28;20036;-64
2023/07/21 08:15:26;;;;;;;12.25;6.75;;;20.20;1.00;;;;;;5065951;28;20037;-64
2023/07/21 08:17:52;;;;;;;6.13;5.63;;;20.30;99.90;;;;;;5040968;28;20049;-64
2023/07/21 08:20:19;;;;;;;8.60;7.60;;;20.40;99.90;;;;;;5055406;28;20410;-64
2023/07/21 08:22:48;;;;;;;6.72;6.15;;;20.50;99.90;;;;;;5059478;28;20055;-64
2023/07/21 08:25:15;;;;;;;7.32;6.75;;;20.70;99.90;;;;;;5068119;28;20036;-65
2023/07/21 08:27:41;;;;;;;6.70;6.10;;;20.80;99.90;;;;;;5065479;28;20032;-64
2023/07/21 08:30:10;;;;;;;8.68;7.97;;;20.80;99.90;;;;;;5068990;28;20055;-65
2023/07/21 08:32:40;;;;;;;5.63;5.22;;;20.80;99.90;;;;;;5053142;28;20037;-64
2023/07/21 08:35:10;;;;;;;9.48;8.85;;;20.90;99.90;;;;;;5051494;28;20047;-65
2023/07/21 08:37:36;;;;;;;7.88;7.28;;;20.80;99.90;;;;;;5064914;28;20036;-65
2023/07/21 08:40:03;;;;;;;6.57;6.07;;;20.90;99.90;;;;;;5060346;28;20044;-65
2023/07/21 08:42:31;;;;;;;9.27;8.38;;;20.90;99.90;;;;;;5049327;28;20474;-65
2023/07/21 08:44:57;;;;;;;8.05;7.45;;;20.90;99.90;;;;;;5050639;28;20052;-65
2023/07/21 08:47:23;;;;;;;9.45;8.73;;;21.00;99.90;;;;;;5065339;28;20106;-64
2023/07/21 08:49:50;;;;;;;9.15;8.40;;;20.90;99.90;;;;;;5058782;28;20032;-64
2023/07/21 08:52:16;;;;;;;9.27;8.45;;;20.70;99.90;;;;;;5065828;28;20028;-64
2023/07/21 08:54:45;;;;;;;10.63;9.82;;;20.60;99.90;;;;;;5066616;28;20565;-64
2023/07/21 08:57:12;;;;;;;11.85;10.95;;;20.40;99.90;;;;;;5062011;28;20072;-64
2023/07/21 08:59:38;;;;;;;11.95;11.10;;;20.30;99.90;;;;;;5051720;28;20057;-64
2023/07/21 09:02:04;;;;;;;11.00;10.10;;;20.20;99.90;;;;;;5052962;28;20449;-64
2023/07/21 09:04:30;;;;;;;10.70;9.90;;;20.20;99.90;;;;;;5064384;28;20041;-64
2023/07/21 09:06:58;;;;;;;9.60;8.73;;;20.60;99.90;;;;;;5058782;28;20040;-64
2023/07/21 09:09:31;;;;;;;9.27;8.57;;;20.10;99.90;;;;;;5068522;28;20033;-64
2023/07/21 09:12:02;;;;;;;10.32;9.52;;;20.20;99.90;;;;;;5045350;28;20049;-64
2023/07/21 09:14:44;;;;;;;9.02;8.32;;;20.30;99.90;;;;;;5050744;28;20036;-64
2023/07/21 09:17:12;;;;;;;10.43;9.63;;;20.40;99.90;;;;;;5050035;28;20037;-64
2023/07/21 09:19:39;;;;;;;10.60;9.80;;;20.50;99.90;;;;;;5049822;28;20052;-64
2023/07/21 09:22:06;;;;;;;9.38;8.57;;;20.60;99.90;;;;;;5061931;28;20071;-64
2023/07/21 09:24:32;;;;;;;10.38;9.57;;;20.60;99.90;;;;;;5068592;28;20041;-64
2023/07/21 09:27:15;;;;;;;13.70;11.45;;;20.70;99.90;;;;;;5058139;28;20065;-64
2023/07/21 09:29:41;;;;;;;10.25;9.32;;;20.70;99.90;;;;;;5062105;28;20888;-64
2023/07/21 09:32:14;;;;;;;10.40;9.60;;;20.60;99.90;;;;;;5064066;28;20037;-64
2023/07/21 09:35:04;;;;;;;10.32;9.63;;;20.60;99.90;;;;;;5063594;28;20045;-64
2023/07/21 09:37:32;;;;;;;10.02;9.23;;;20.40;99.90;;;;;;5065006;28;20044;-64
2023/07/21 09:40:05;;;;;;;13.15;12.15;;;20.40;99.90;;;;;;5061491;28;20079;-64
2023/07/21 09:42:32;;;;;;;12.55;11.65;;;20.40;99.90;;;;;;5067663;28;20050;-64
2023/07/21 09:44:58;;;;;;;12.45;11.60;;;20.50;99.90;;;;;;5061325;28;20095;-64
2023/07/21 09:47:24;;;;;;;10.48;9.57;;;20.40;99.90;;;;;;5072732;28;20048;-64
2023/07/21 09:49:54;;;;;;;10.00;9.30;;;20.50;99.90;;;;;;5072833;28;20044;-64
2023/07/21 09:52:22;;;;;;;9.23;8.63;;;20.50;99.90;;;;;;5063445;28;20582;-64
2023/07/21 09:54:54;;;;;;;10.50;9.80;;;20.50;99.90;;;;;;5036879;28;20094;-64
2023/07/21 09:57:23;;;;;;;9.10;8.27;;;20.60;99.90;;;;;;5071809;28;20481;-64
2023/07/21 09:59:50;;;;;;;9.30;8.50;;;20.70;99.90;;;;;;5071076;28;20506;-64
2023/07/21 10:02:16;;;;;;;9.05;8.35;;;20.70;99.90;;;;;;5070836;28;20115;-64
2023/07/21 10:04:46;;;;;;;9.48;8.77;;;20.60;99.90;;;;;;5064211;28;20065;-64
2023/07/21 10:07:12;;;;;;;8.30;7.50;;;20.60;99.90;;;;;;5052037;28;20043;-64
2023/07/21 10:09:39;;;;;;;8.45;7.80;;;20.70;99.90;;;;;;5071648;28;20404;-64
2023/07/21 10:12:16;;;;;;;8.63;8.02;;;20.70;99.90;;;;;;5068739;28;20051;-64
2023/07/21 10:14:44;;;;;;;8.07;7.38;;;20.60;99.90;;;;;;5031761;28;20376;-64
2023/07/21 10:17:11;;;;;;;8.50;7.88;;;20.50;99.90;;;;;;5058758;28;20049;-64
2023/07/21 10:19:44;;;;;;;9.05;8.27;;;20.60;99.90;;;;;;5062051;28;20036;-64
2023/07/21 10:22:24;;;;;;;9.98;9.18;;;20.50;99.90;;;;;;5068713;28;20498;-64
2023/07/21 10:24:51;;;;;;;14.30;13.30;;;20.50;99.90;;;;;;5071372;28;20526;-64
2023/07/21 10:27:23;;;;;;;24.23;22.45;;;20.50;99.90;;;;;;5068395;28;20036;-64
2023/07/21 10:29:55;;;;;;;26.88;24.58;;;20.30;99.90;;;;;;5063088;28;20033;-63
2023/07/21 10:32:22;;;;;;;28.13;25.88;;;20.10;99.90;;;;;;5069235;28;20068;-63
2023/07/21 10:34:51;;;;;;;29.25;26.75;;;19.70;99.90;;;;;;5068238;28;20552;-64
2023/07/21 10:37:17;;;;;;;29.50;27.20;;;19.50;1.00;;;;;;5053531;28;20040;-64
2023/07/21 10:39:53;;;;;;;32.65;29.85;;;19.40;1.00;;;;;;5050331;28;20399;-64
2023/07/21 10:42:18;;;;;;;29.50;27.30;;;19.30;11.80;;;;;;5062133;28;20701;-64
2023/07/21 10:44:45;;;;;;;32.65;30.15;;;19.50;99.90;;;;;;5042110;28;20055;-65
2023/07/21 10:47:19;;;;;;;37.92;34.75;;;19.70;99.90;;;;;;5071656;28;20107;-64
2023/07/21 10:49:46;;;;;;;19.55;17.95;;;20.10;99.90;;;;;;5062160;28;20111;-66
2023/07/21 10:52:12;;;;;;;26.65;24.40;;;20.10;99.90;;;;;;5062445;28;20045;-66
2023/07/21 10:54:38;;;;;;;22.77;20.50;;;20.20;1.00;;;;;;5062474;28;20043;-67
2023/07/21 10:57:04;;;;;;;23.10;21.13;;;20.10;99.90;;;;;;5056104;28;20513;-66
2023/07/21 10:59:32;;;;;;;27.67;25.08;;;20.00;99.90;;;;;;5062356;28;20124;-66
2023/07/21 11:01:58;;;;;;;25.65;23.45;;;19.80;99.90;;;;;;5045510;28;20111;-66
2023/07/21 11:04:24;;;;;;;22.00;20.08;;;19.80;99.90;;;;;;5021262;28;20145;-66
2023/07/21 11:06:52;;;;;;;16.15;14.52;;;19.70;99.90;;;;;;5034580;28;20124;-67
2023/07/21 11:09:19;;;;;;;15.77;14.38;;;19.70;99.90;;;;;;5049651;28;20530;-68
2023/07/21 11:11:47;;;;;;;18.45;16.65;;;19.70;99.90;;;;;;5045059;28;20550;-66
2023/07/21 11:14:18;;;;;;;13.50;12.30;;;19.60;99.90;;;;;;5039331;28;20041;-67
2023/07/21 11:16:56;;;;;;;17.95;16.20;;;19.80;97.70;;;;;;5034339;28;20041;-67
2023/07/21 11:19:26;;;;;;;15.65;14.40;;;19.70;98.50;;;;;;5036414;28;20037;-66
2023/07/21 11:21:52;;;;;;;18.75;17.17;;;19.60;73.70;;;;;;5039169;28;20094;-67
2023/07/21 11:24:23;;;;;;;19.75;18.08;;;19.70;56.10;;;;;;5042658;28;20049;-68
2023/07/21 11:26:49;;;;;;;26.70;24.60;;;19.40;42.00;;;;;;5031104;28;20457;-65
2023/07/21 11:29:16;;;;;;;28.45;26.08;;;19.50;99.90;;;;;;5042726;28;20120;-65
2023/07/21 11:31:42;;;;;;;26.98;24.67;;;19.30;99.90;;;;;;5048914;28;20047;-66
2023/07/21 11:34:30;;;;;;;29.25;26.52;;;19.30;99.90;;;;;;5042514;28;20399;-65
2023/07/21 11:37:00;;;;;;;26.90;24.70;;;19.20;99.90;;;;;;5050396;28;20040;-63
2023/07/21 11:39:27;;;;;;;25.58;23.45;;;18.70;99.90;;;;;;5046230;28;20041;-64
2023/07/21 11:41:54;;;;;;;27.95;25.50;;;18.40;99.90;;;;;;5044565;28;20072;-64
2023/07/21 11:44:21;;;;;;;26.80;24.60;;;18.50;99.90;;;;;;5035274;28;20121;-63
2023/07/21 11:47:03;;;;;;;24.83;22.73;;;18.40;1.00;;;;;;5042149;28;20300;-65
2023/07/21 11:49:30;;;;;;;26.80;24.80;;;18.40;1.00;;;;;;5039506;28;20063;-65
2023/07/21 11:52:00;;;;;;;28.52;26.48;;;18.40;1.00;;;;;;5043532;28;20033;-66
2023/07/21 11:54:28;;;;;;;29.80;27.60;;;18.40;1.00;;;;;;5041765;28;20037;-66
2023/07/21 11:56:55;;;;;;;32.72;30.13;;;18.50;1.00;;;;;;5045934;28;20037;-65
2023/07/21 11:59:21;;;;;;;27.88;25.77;;;18.80;75.00;;;;;;5043835;28;20047;-63
2023/07/21 12:01:48;;;;;;;33.78;30.98;;;18.80;99.90;;;;;;5067109;28;20058;-64
2023/07/21 12:04:14;;;;;;;34.13;31.40;;;19.00;99.90;;;;;;5066506;28;20115;-64
2023/07/21 12:06:40;;;;;;;32.40;29.85;;;18.90;99.90;;;;;;5055531;28;20159;-64
2023/07/21 12:09:07;;;;;;;33.67;30.85;;;19.00;99.90;;;;;;5067716;28;20040;-64
2023/07/21 12:11:37;;;;;;;33.13;30.38;;;19.00;99.90;;;;;;5053224;28;20103;-64
2023/07/21 12:14:03;;;;;;;36.22;33.05;;;19.00;99.90;;;;;;5062420;28;20037;-65
2023/07/21 12:16:30;;;;;;;36.25;33.22;;;19.10;99.90;;;;;;5048739;28;20028;-65
2023/07/21 12:18:56;;;;;;;34.72;31.58;;;19.20;99.90;;;;;;5067981;28;20060;-64
2023/07/21 12:21:23;;;;;;;35.63;32.60;;;19.30;1.00;;;;;;5049213;28;20112;-65
2023/07/21 12:23:48;;;;;;;34.35;31.65;;;19.30;1.00;;;;;;5067955;28;20051;-65
2023/07/21 12:26:14;;;;;;;34.97;31.65;;;19.30;1.00;;;;;;5067369;28;20037;-63
2023/07/21 12:28:41;;;;;;;36.75;33.22;;;19.10;1.00;;;;;;5061971;28;20032;-63
2023/07/21 12:31:06;;;;;;;30.63;28.23;;;19.00;1.00;;;;;;5064942;28;20446;-63
2023/07/21 12:33:34;;;;;;;26.00;24.05;;;19.00;1.00;;;;;;5054473;28;20120;-63